DLH506 EDDM-EDDV
Flight info
| Callsign | DLH506 |
|---|---|
| Flight time | 0h 55m |
| Altitude | 30000 |
| Route | INPUD3Q/08L INPUD Y102 UPALA M726 LASTO M852 BIRKA/N0389F240 T803 GITEX GITEX4R |
| Aircraft | A388/J-SADE2E3FGHIJ3J4J5M1RWXY/LB1D1 |
Departure
| Time | 2026-05-01 11:18 |
|---|---|
| Airport | Munich Airport (EDDM) |
Arrival
| Time | 2026-05-01 12:13 |
|---|---|
| Airport | Hannover Airport (EDDV) |
| Time | Latitude | Longitude | Altitude | Speed | Heading |
|---|---|---|---|---|---|
| 2026-05-01 10:46 | 48.35465 | 11.79718 | 1464 ft | 0 kts | 83° |
| 2026-05-01 10:58 | 48.35464 | 11.79702 | 1464 ft | 2 kts | 83° |
| 2026-05-01 10:58 | 48.35461 | 11.79678 | 1465 ft | 2 kts | 81° |
| 2026-05-01 10:59 | 48.35458 | 11.79654 | 1460 ft | 2 kts | 77° |
| 2026-05-01 10:59 | 48.35453 | 11.79631 | 1460 ft | 2 kts | 70° |
| 2026-05-01 10:59 | 48.35444 | 11.79609 | 1460 ft | 2 kts | 52° |
| 2026-05-01 10:59 | 48.35431 | 11.79598 | 1460 ft | 2 kts | 17° |
| 2026-05-01 11:00 | 48.35422 | 11.79597 | 1472 ft | 0 kts | 3° |
| 2026-05-01 11:00 | 48.35426 | 11.79597 | 1472 ft | 1 kts | 2° |
| 2026-05-01 11:00 | 48.35433 | 11.79598 | 1462 ft | 1 kts | 3° |
| 2026-05-01 11:01 | 48.35442 | 11.79598 | 1463 ft | 1 kts | 2° |
| 2026-05-01 11:09 | 48.35444 | 11.79598 | 1472 ft | 2 kts | 2° |
| 2026-05-01 11:09 | 48.35482 | 11.79592 | 1466 ft | 10 kts | 350° |
| 2026-05-01 11:10 | 48.35688 | 11.79551 | 1465 ft | 12 kts | 353° |
| 2026-05-01 11:10 | 48.35733 | 11.79542 | 1470 ft | 8 kts | 352° |
| 2026-05-01 11:10 | 48.35789 | 11.79531 | 1465 ft | 0 kts | 354° |
| 2026-05-01 11:10 | 48.35815 | 11.79527 | 1470 ft | 7 kts | 353° |
| 2026-05-01 11:11 | 48.35875 | 11.79489 | 1460 ft | 11 kts | 301° |
| 2026-05-01 11:11 | 48.35926 | 11.79363 | 1466 ft | 17 kts | 331° |
| 2026-05-01 11:11 | 48.35989 | 11.79337 | 1463 ft | 0 kts | 352° |
| 2026-05-01 11:13 | 48.36022 | 11.79329 | 1467 ft | 9 kts | 347° |
| 2026-05-01 11:13 | 48.36075 | 11.79264 | 1463 ft | 10 kts | 315° |
| 2026-05-01 11:13 | 48.36087 | 11.79254 | 1461 ft | 0 kts | 1° |
| 2026-05-01 11:14 | 48.36088 | 11.79254 | 1461 ft | 0 kts | 358° |
| 2026-05-01 11:14 | 48.36100 | 11.79247 | 1461 ft | 4 kts | 307° |
| 2026-05-01 11:14 | 48.36086 | 11.79162 | 1463 ft | 22 kts | 252° |
| 2026-05-01 11:14 | 48.36054 | 11.78838 | 1468 ft | 36 kts | 264° |
| 2026-05-01 11:15 | 48.36026 | 11.78477 | 1466 ft | 35 kts | 263° |
| 2026-05-01 11:15 | 48.35996 | 11.78087 | 1467 ft | 36 kts | 264° |
| 2026-05-01 11:15 | 48.35974 | 11.77801 | 1468 ft | 25 kts | 262° |
| 2026-05-01 11:15 | 48.35951 | 11.77514 | 1464 ft | 30 kts | 263° |
| 2026-05-01 11:16 | 48.35929 | 11.77216 | 1469 ft | 24 kts | 264° |
| 2026-05-01 11:16 | 48.35912 | 11.76947 | 1471 ft | 17 kts | 280° |
| 2026-05-01 11:16 | 48.35983 | 11.76828 | 1461 ft | 17 kts | 345° |
| 2026-05-01 11:16 | 48.36062 | 11.76810 | 1470 ft | 12 kts | 352° |
| 2026-05-01 11:17 | 48.36193 | 11.76799 | 1471 ft | 25 kts | 7° |
| 2026-05-01 11:17 | 48.36291 | 11.76939 | 1466 ft | 21 kts | 80° |
| 2026-05-01 11:17 | 48.36327 | 11.77391 | 1470 ft | 82 kts | 83° |
| 2026-05-01 11:17 | 48.36420 | 11.78581 | 1467 ft | 140 kts | 82° |
| 2026-05-01 11:18 | 48.36517 | 11.80116 | 1905 ft | 146 kts | 86° |
| 2026-05-01 11:18 | 48.36603 | 11.81643 | 2613 ft | 152 kts | 84° |
| 2026-05-01 11:18 | 48.36736 | 11.83209 | 3382 ft | 152 kts | 82° |
| 2026-05-01 11:18 | 48.36881 | 11.84877 | 3837 ft | 169 kts | 84° |
| 2026-05-01 11:19 | 48.37023 | 11.86728 | 4206 ft | 190 kts | 85° |
| 2026-05-01 11:19 | 48.37165 | 11.88821 | 4671 ft | 213 kts | 86° |
| 2026-05-01 11:19 | 48.37318 | 11.91176 | 5205 ft | 238 kts | 86° |
| 2026-05-01 11:19 | 48.37527 | 11.93727 | 5897 ft | 254 kts | 77° |
| 2026-05-01 11:20 | 48.38351 | 11.96081 | 6843 ft | 262 kts | 51° |
| 2026-05-01 11:20 | 48.39868 | 11.97669 | 7741 ft | 273 kts | 23° |
| 2026-05-01 11:20 | 48.41753 | 11.98070 | 8765 ft | 281 kts | 358° |
| 2026-05-01 11:20 | 48.43636 | 11.97173 | 9701 ft | 291 kts | 333° |
| 2026-05-01 11:21 | 48.45149 | 11.95088 | 10615 ft | 302 kts | 308° |
| 2026-05-01 11:21 | 48.46028 | 11.92189 | 11462 ft | 309 kts | 289° |
| 2026-05-01 11:21 | 48.46627 | 11.89065 | 12300 ft | 311 kts | 290° |
| 2026-05-01 11:21 | 48.47347 | 11.86023 | 13144 ft | 312 kts | 295° |
| 2026-05-01 11:22 | 48.48250 | 11.83040 | 13986 ft | 314 kts | 300° |
| 2026-05-01 11:22 | 48.49273 | 11.80118 | 14767 ft | 316 kts | 302° |
| 2026-05-01 11:22 | 48.50366 | 11.77206 | 15371 ft | 327 kts | 303° |
| 2026-05-01 11:22 | 48.51545 | 11.74140 | 15681 ft | 346 kts | 303° |
| 2026-05-01 11:23 | 48.52741 | 11.71026 | 16760 ft | 336 kts | 303° |
| 2026-05-01 11:23 | 48.53897 | 11.67990 | 17821 ft | 335 kts | 303° |
| 2026-05-01 11:23 | 48.55070 | 11.64908 | 18570 ft | 341 kts | 303° |
| 2026-05-01 11:23 | 48.56312 | 11.61852 | 19296 ft | 341 kts | 312° |
| 2026-05-01 11:24 | 48.58023 | 11.59439 | 20104 ft | 335 kts | 331° |
| 2026-05-01 11:24 | 48.60104 | 11.57935 | 20891 ft | 331 kts | 343° |
| 2026-05-01 11:24 | 48.64680 | 11.55358 | 21400 ft | 372 kts | 342° |
| 2026-05-01 11:25 | 48.67103 | 11.53954 | 21679 ft | 387 kts | 342° |
| 2026-05-01 11:25 | 48.72253 | 11.50950 | 22262 ft | 404 kts | 342° |
| 2026-05-01 11:25 | 48.74868 | 11.49436 | 22628 ft | 410 kts | 342° |
| 2026-05-01 11:26 | 48.77565 | 11.47872 | 22845 ft | 420 kts | 342° |
| 2026-05-01 11:26 | 48.83149 | 11.44627 | 23371 ft | 436 kts | 342° |
| 2026-05-01 11:26 | 48.85989 | 11.42972 | 23860 ft | 439 kts | 341° |
| 2026-05-01 11:27 | 48.88837 | 11.41309 | 24320 ft | 441 kts | 341° |
| 2026-05-01 11:27 | 48.91710 | 11.39631 | 24793 ft | 444 kts | 341° |
| 2026-05-01 11:27 | 48.94597 | 11.37943 | 25271 ft | 446 kts | 341° |
| 2026-05-01 11:27 | 48.97461 | 11.36267 | 25742 ft | 449 kts | 341° |
| 2026-05-01 11:28 | 48.99401 | 11.35131 | 26037 ft | 452 kts | 341° |
| 2026-05-01 11:28 | 49.02353 | 11.33399 | 26595 ft | 455 kts | 341° |
| 2026-05-01 11:28 | 49.05292 | 11.31673 | 27123 ft | 458 kts | 341° |
| 2026-05-01 11:29 | 49.11284 | 11.28149 | 28211 ft | 464 kts | 341° |
| 2026-05-01 11:29 | 49.14304 | 11.26371 | 28731 ft | 468 kts | 341° |
| 2026-05-01 11:29 | 49.20523 | 11.23252 | 29792 ft | 472 kts | 349° |
| 2026-05-01 11:30 | 49.23763 | 11.22465 | 30286 ft | 475 kts | 355° |
| 2026-05-01 11:30 | 49.30513 | 11.22259 | 30375 ft | 493 kts | 1° |
| 2026-05-01 11:31 | 49.37184 | 11.22292 | 30376 ft | 487 kts | 1° |
| 2026-05-01 11:31 | 49.43978 | 11.22329 | 30363 ft | 491 kts | 1° |
| 2026-05-01 11:32 | 49.50765 | 11.22381 | 30374 ft | 491 kts | 1° |
| 2026-05-01 11:32 | 49.57615 | 11.22432 | 30376 ft | 491 kts | 1° |
| 2026-05-01 11:33 | 49.64459 | 11.22441 | 30374 ft | 491 kts | 1° |
| 2026-05-01 11:33 | 49.71209 | 11.22449 | 30380 ft | 491 kts | 1° |
| 2026-05-01 11:34 | 49.78066 | 11.22461 | 30383 ft | 492 kts | 1° |
| 2026-05-01 11:34 | 49.84893 | 11.22499 | 30391 ft | 492 kts | 1° |
| 2026-05-01 11:35 | 49.91741 | 11.22544 | 30394 ft | 493 kts | 1° |
| 2026-05-01 11:35 | 49.98561 | 11.22585 | 30396 ft | 493 kts | 1° |
| 2026-05-01 11:36 | 50.05440 | 11.22625 | 30396 ft | 493 kts | 1° |
| 2026-05-01 11:36 | 50.12280 | 11.22665 | 30395 ft | 493 kts | 1° |
| 2026-05-01 11:37 | 50.19156 | 11.22705 | 30396 ft | 493 kts | 1° |
| 2026-05-01 11:37 | 50.26014 | 11.22747 | 30398 ft | 493 kts | 1° |
| 2026-05-01 11:38 | 50.32859 | 11.22789 | 30401 ft | 493 kts | 1° |
| 2026-05-01 11:38 | 50.39701 | 11.22246 | 30402 ft | 495 kts | 355° |
| 2026-05-01 11:39 | 50.46567 | 11.21199 | 30401 ft | 494 kts | 356° |
| 2026-05-01 11:39 | 50.53360 | 11.20194 | 30391 ft | 495 kts | 356° |
| 2026-05-01 11:40 | 50.60240 | 11.19157 | 30392 ft | 496 kts | 355° |
| 2026-05-01 11:40 | 50.67101 | 11.18114 | 30396 ft | 496 kts | 356° |
| 2026-05-01 11:41 | 50.73922 | 11.17074 | 30412 ft | 495 kts | 356° |
| 2026-05-01 11:41 | 50.80806 | 11.16021 | 30414 ft | 497 kts | 355° |
| 2026-05-01 11:42 | 50.87659 | 11.14969 | 30414 ft | 497 kts | 355° |
| 2026-05-01 11:42 | 50.94429 | 11.13925 | 30077 ft | 490 kts | 355° |
| 2026-05-01 11:42 | 50.97809 | 11.13403 | 29241 ft | 486 kts | 356° |
| 2026-05-01 11:43 | 51.01190 | 11.12880 | 28333 ft | 482 kts | 356° |
| 2026-05-01 11:43 | 51.04489 | 11.12369 | 27461 ft | 476 kts | 356° |
| 2026-05-01 11:43 | 51.07776 | 11.11860 | 26560 ft | 472 kts | 356° |
| 2026-05-01 11:44 | 51.14150 | 11.09817 | 24924 ft | 465 kts | 344° |
| 2026-05-01 11:44 | 51.17177 | 11.08000 | 24117 ft | 462 kts | 338° |
| 2026-05-01 11:44 | 51.20068 | 11.05899 | 23210 ft | 457 kts | 338° |
| 2026-05-01 11:44 | 51.22969 | 11.03840 | 22295 ft | 452 kts | 338° |
| 2026-05-01 11:45 | 51.25819 | 11.01831 | 21445 ft | 448 kts | 338° |
| 2026-05-01 11:45 | 51.28576 | 10.99880 | 20543 ft | 445 kts | 338° |
| 2026-05-01 11:45 | 51.31398 | 10.97868 | 19694 ft | 442 kts | 338° |
| 2026-05-01 11:45 | 51.34223 | 10.95846 | 18844 ft | 438 kts | 338° |
| 2026-05-01 11:46 | 51.36944 | 10.93892 | 17974 ft | 434 kts | 338° |
| 2026-05-01 11:46 | 51.39647 | 10.91973 | 17157 ft | 429 kts | 339° |
| 2026-05-01 11:46 | 51.42385 | 10.90178 | 16328 ft | 424 kts | 340° |
| 2026-05-01 11:46 | 51.45111 | 10.88448 | 15516 ft | 419 kts | 340° |
| 2026-05-01 11:47 | 51.47812 | 10.86730 | 14738 ft | 415 kts | 340° |
| 2026-05-01 11:47 | 51.50489 | 10.85012 | 13919 ft | 411 kts | 340° |
| 2026-05-01 11:47 | 51.53115 | 10.83311 | 13077 ft | 407 kts | 340° |
| 2026-05-01 11:47 | 51.55731 | 10.81608 | 12217 ft | 403 kts | 340° |
| 2026-05-01 11:48 | 51.58320 | 10.79921 | 11383 ft | 400 kts | 340° |
| 2026-05-01 11:48 | 51.60887 | 10.78238 | 10741 ft | 396 kts | 340° |
| 2026-05-01 11:48 | 51.63444 | 10.76563 | 10276 ft | 395 kts | 340° |
| 2026-05-01 11:48 | 51.65984 | 10.74898 | 10051 ft | 394 kts | 340° |
| 2026-05-01 11:49 | 51.68506 | 10.73243 | 10004 ft | 393 kts | 340° |
| 2026-05-01 11:49 | 51.71040 | 10.71575 | 10001 ft | 394 kts | 340° |
| 2026-05-01 11:49 | 51.73577 | 10.69907 | 9996 ft | 396 kts | 339° |
| 2026-05-01 11:49 | 51.76133 | 10.68226 | 9995 ft | 397 kts | 339° |
| 2026-05-01 11:50 | 51.78702 | 10.66530 | 9996 ft | 398 kts | 339° |
| 2026-05-01 11:50 | 51.81266 | 10.64837 | 9992 ft | 397 kts | 339° |
| 2026-05-01 11:50 | 51.83787 | 10.63170 | 10000 ft | 396 kts | 339° |
| 2026-05-01 11:50 | 51.86331 | 10.61485 | 9993 ft | 396 kts | 339° |
| 2026-05-01 11:51 | 51.88882 | 10.59794 | 9995 ft | 395 kts | 339° |
| 2026-05-01 11:51 | 51.91432 | 10.58100 | 9994 ft | 396 kts | 339° |
| 2026-05-01 11:51 | 51.93983 | 10.56404 | 9992 ft | 396 kts | 339° |
| 2026-05-01 11:51 | 51.96533 | 10.54706 | 9994 ft | 396 kts | 339° |
| 2026-05-01 11:52 | 51.99084 | 10.53006 | 9989 ft | 396 kts | 339° |
| 2026-05-01 11:52 | 52.01637 | 10.51302 | 9989 ft | 395 kts | 339° |
| 2026-05-01 11:52 | 52.04107 | 10.49638 | 9994 ft | 373 kts | 339° |
| 2026-05-01 11:52 | 52.06438 | 10.48063 | 9992 ft | 354 kts | 339° |
| 2026-05-01 11:53 | 52.08692 | 10.46543 | 9992 ft | 349 kts | 339° |
| 2026-05-01 11:53 | 52.10896 | 10.45053 | 9998 ft | 347 kts | 339° |
| 2026-05-01 11:53 | 52.13085 | 10.43573 | 9993 ft | 349 kts | 339° |
| 2026-05-01 11:53 | 52.15330 | 10.42054 | 9995 ft | 349 kts | 339° |
| 2026-05-01 11:54 | 52.17576 | 10.40534 | 9993 ft | 349 kts | 339° |
| 2026-05-01 11:54 | 52.19820 | 10.39016 | 10003 ft | 349 kts | 339° |
| 2026-05-01 11:54 | 52.22047 | 10.37521 | 9994 ft | 350 kts | 339° |
| 2026-05-01 11:54 | 52.24309 | 10.36007 | 9994 ft | 351 kts | 339° |
| 2026-05-01 11:55 | 52.26577 | 10.34488 | 9996 ft | 351 kts | 339° |
| 2026-05-01 11:55 | 52.28833 | 10.32974 | 9992 ft | 351 kts | 339° |
| 2026-05-01 11:55 | 52.30922 | 10.31087 | 9983 ft | 352 kts | 321° |
| 2026-05-01 11:55 | 52.32521 | 10.28056 | 9986 ft | 353 kts | 298° |
| 2026-05-01 11:56 | 52.33329 | 10.24385 | 9986 ft | 350 kts | 277° |
| 2026-05-01 11:56 | 52.33596 | 10.20436 | 9988 ft | 349 kts | 274° |
| 2026-05-01 11:56 | 52.33844 | 10.16501 | 9984 ft | 344 kts | 274° |
| 2026-05-01 11:56 | 52.34089 | 10.12661 | 9894 ft | 334 kts | 274° |
| 2026-05-01 11:57 | 52.34325 | 10.08972 | 9764 ft | 320 kts | 274° |
| 2026-05-01 11:57 | 52.34555 | 10.05435 | 9639 ft | 307 kts | 274° |
| 2026-05-01 11:57 | 52.34778 | 10.02025 | 9515 ft | 295 kts | 274° |
| 2026-05-01 11:57 | 52.34996 | 9.98753 | 9411 ft | 284 kts | 274° |
| 2026-05-01 11:58 | 52.35207 | 9.95602 | 9247 ft | 273 kts | 274° |
| 2026-05-01 11:58 | 52.35416 | 9.92577 | 9072 ft | 265 kts | 274° |
| 2026-05-01 11:58 | 52.35854 | 9.86585 | 8196 ft | 262 kts | 274° |
| 2026-05-01 11:59 | 52.36066 | 9.83642 | 7752 ft | 260 kts | 274° |
| 2026-05-01 11:59 | 52.36275 | 9.80707 | 7287 ft | 258 kts | 274° |
| 2026-05-01 11:59 | 52.36482 | 9.77816 | 7072 ft | 259 kts | 274° |
| 2026-05-01 12:00 | 52.36895 | 9.72027 | 6973 ft | 254 kts | 274° |
| 2026-05-01 12:00 | 52.37102 | 9.69140 | 6975 ft | 256 kts | 274° |
| 2026-05-01 12:00 | 52.37504 | 9.63362 | 6972 ft | 256 kts | 274° |
| 2026-05-01 12:01 | 52.37708 | 9.60466 | 6979 ft | 256 kts | 274° |
| 2026-05-01 12:01 | 52.37907 | 9.57569 | 6968 ft | 256 kts | 274° |
| 2026-05-01 12:01 | 52.38110 | 9.54670 | 6971 ft | 255 kts | 274° |
| 2026-05-01 12:01 | 52.38312 | 9.51782 | 6969 ft | 255 kts | 274° |
| 2026-05-01 12:02 | 52.38510 | 9.48895 | 6966 ft | 255 kts | 274° |
| 2026-05-01 12:02 | 52.38711 | 9.46009 | 6970 ft | 256 kts | 274° |
| 2026-05-01 12:02 | 52.38914 | 9.43120 | 6971 ft | 255 kts | 274° |
| 2026-05-01 12:02 | 52.39113 | 9.40227 | 6983 ft | 255 kts | 274° |
| 2026-05-01 12:03 | 52.39317 | 9.37342 | 6972 ft | 256 kts | 274° |
| 2026-05-01 12:03 | 52.39519 | 9.34437 | 6971 ft | 257 kts | 274° |
| 2026-05-01 12:03 | 52.39726 | 9.31533 | 6970 ft | 256 kts | 274° |
| 2026-05-01 12:03 | 52.39929 | 9.28644 | 6859 ft | 255 kts | 274° |
| 2026-05-01 12:04 | 52.40132 | 9.25806 | 6714 ft | 253 kts | 274° |
| 2026-05-01 12:04 | 52.40335 | 9.22947 | 6389 ft | 253 kts | 274° |
| 2026-05-01 12:04 | 52.40539 | 9.20130 | 6071 ft | 252 kts | 274° |
| 2026-05-01 12:04 | 52.40749 | 9.17301 | 5759 ft | 250 kts | 274° |
| 2026-05-01 12:05 | 52.40961 | 9.14491 | 5433 ft | 248 kts | 274° |
| 2026-05-01 12:05 | 52.42651 | 9.09742 | 4898 ft | 249 kts | 331° |
| 2026-05-01 12:05 | 52.44271 | 9.09017 | 4768 ft | 238 kts | 4° |
| 2026-05-01 12:06 | 52.45820 | 9.09713 | 4514 ft | 229 kts | 36° |
| 2026-05-01 12:06 | 52.46866 | 9.11557 | 4265 ft | 218 kts | 63° |
| 2026-05-01 12:06 | 52.47611 | 9.13743 | 4011 ft | 220 kts | 70° |
| 2026-05-01 12:06 | 52.48100 | 9.16068 | 3977 ft | 214 kts | 75° |
| 2026-05-01 12:07 | 52.48647 | 9.18372 | 3966 ft | 220 kts | 62° |
| 2026-05-01 12:07 | 52.49486 | 9.20471 | 3967 ft | 217 kts | 72° |
| 2026-05-01 12:07 | 52.49647 | 9.22868 | 3978 ft | 211 kts | 102° |
| 2026-05-01 12:07 | 52.49370 | 9.25240 | 3966 ft | 212 kts | 104° |
| 2026-05-01 12:08 | 52.48984 | 9.27543 | 3971 ft | 210 kts | 111° |
| 2026-05-01 12:08 | 52.48599 | 9.29887 | 3955 ft | 214 kts | 99° |
| 2026-05-01 12:08 | 52.48748 | 9.32314 | 3862 ft | 215 kts | 83° |
| 2026-05-01 12:08 | 52.48724 | 9.34735 | 3640 ft | 209 kts | 99° |
| 2026-05-01 12:09 | 52.48562 | 9.37104 | 3321 ft | 210 kts | 100° |
| 2026-05-01 12:09 | 52.48292 | 9.39440 | 3054 ft | 208 kts | 103° |
| 2026-05-01 12:09 | 52.48011 | 9.41773 | 2807 ft | 207 kts | 100° |
| 2026-05-01 12:09 | 52.47823 | 9.43989 | 2671 ft | 183 kts | 100° |
| 2026-05-01 12:10 | 52.47669 | 9.45915 | 2416 ft | 159 kts | 98° |
| 2026-05-01 12:10 | 52.47468 | 9.49391 | 1682 ft | 148 kts | 98° |
| 2026-05-01 12:10 | 52.47340 | 9.50944 | 1458 ft | 132 kts | 98° |
| 2026-05-01 12:11 | 52.47102 | 9.54046 | 1004 ft | 155 kts | 96° |
| 2026-05-01 12:11 | 52.47055 | 9.55780 | 961 ft | 154 kts | 95° |
| 2026-05-01 12:11 | 52.47015 | 9.57460 | 964 ft | 138 kts | 96° |
| 2026-05-01 12:12 | 52.46976 | 9.58975 | 977 ft | 134 kts | 95° |
| 2026-05-01 12:12 | 52.46937 | 9.60492 | 776 ft | 132 kts | 95° |
| 2026-05-01 12:12 | 52.46896 | 9.62004 | 631 ft | 133 kts | 95° |
| 2026-05-01 12:12 | 52.46862 | 9.63387 | 452 ft | 126 kts | 93° |
| 2026-05-01 12:13 | 52.46840 | 9.64910 | 255 ft | 132 kts | 93° |
| 2026-05-01 12:13 | 52.46791 | 9.66341 | 198 ft | 111 kts | 93° |
| 2026-05-01 12:13 | 52.46765 | 9.67299 | 185 ft | 61 kts | 92° |
| 2026-05-01 12:13 | 52.46753 | 9.67819 | 181 ft | 31 kts | 93° |
| 2026-05-01 12:14 | 52.46687 | 9.68094 | 198 ft | 26 kts | 137° |
| 2026-05-01 12:14 | 52.46595 | 9.68219 | 183 ft | 25 kts | 142° |
| 2026-05-01 12:14 | 52.46499 | 9.68262 | 189 ft | 15 kts | 185° |
| 2026-05-01 12:14 | 52.46399 | 9.68321 | 196 ft | 21 kts | 143° |
| 2026-05-01 12:15 | 52.46271 | 9.68485 | 200 ft | 23 kts | 142° |
| 2026-05-01 12:15 | 52.46176 | 9.68608 | 202 ft | 15 kts | 142° |
| 2026-05-01 12:15 | 52.46092 | 9.68716 | 183 ft | 16 kts | 142° |
| 2026-05-01 12:15 | 52.45980 | 9.68859 | 182 ft | 7 kts | 142° |
| 2026-05-01 12:16 | 52.45973 | 9.68868 | 182 ft | 0 kts | 142° |
| 2026-05-01 12:16 | 52.45965 | 9.68878 | 182 ft | 2 kts | 142° |
| 2026-05-01 12:16 | 52.45923 | 9.68931 | 182 ft | 10 kts | 142° |
| 2026-05-01 12:16 | 52.45850 | 9.69005 | 182 ft | 14 kts | 167° |
| 2026-05-01 12:17 | 52.45786 | 9.68941 | 194 ft | 12 kts | 261° |
| 2026-05-01 12:17 | 52.45789 | 9.68783 | 182 ft | 6 kts | 273° |
| 2026-05-01 12:17 | 52.45789 | 9.68765 | 183 ft | 0 kts | 283° |